createdAt,value
2022-08-27T00:03:02.610Z,19.20
2022-08-27T00:07:56.520Z,19.30
2022-08-27T00:10:26.011Z,19.20
2022-08-27T00:12:54.088Z,19.10
2022-08-27T00:17:48.419Z,19.20
2022-08-27T00:20:20.050Z,19.00
2022-08-27T00:22:46.992Z,19.00
2022-08-27T00:27:41.105Z,19.00
2022-08-27T00:30:11.055Z,19.00
2022-08-27T00:35:06.665Z,19.00
2022-08-27T00:40:01.094Z,19.10
2022-08-27T00:42:27.849Z,19.10
2022-08-27T00:44:59.282Z,19.00
2022-08-27T00:47:31.492Z,19.20
2022-08-27T00:50:08.393Z,22.30
2022-08-27T00:52:41.839Z,19.10
2022-08-27T00:55:12.881Z,19.10
2022-08-27T00:57:42.132Z,19.10
2022-08-27T01:00:14.661Z,19.10
2022-08-27T01:02:42.111Z,19.00
2022-08-27T01:05:12.782Z,19.10
2022-08-27T01:07:42.829Z,19.00
2022-08-27T01:10:13.306Z,18.90
2022-08-27T01:12:40.623Z,18.90
2022-08-27T01:15:13.462Z,18.90
2022-08-27T01:17:44.553Z,18.90
2022-08-27T01:20:19.952Z,18.90
2022-08-27T01:23:07.145Z,18.90
2022-08-27T01:25:34.208Z,18.90
2022-08-27T01:28:03.488Z,18.90
2022-08-27T01:30:31.285Z,18.80
2022-08-27T01:32:58.124Z,18.80
2022-08-27T01:35:25.505Z,18.70
2022-08-27T01:37:54.295Z,18.80
2022-08-27T01:40:24.067Z,18.80
2022-08-27T01:42:54.814Z,18.60
2022-08-27T01:45:25.344Z,18.80
2022-08-27T01:47:52.501Z,18.80
2022-08-27T01:50:26.767Z,18.80
2022-08-27T01:55:25.291Z,18.80
2022-08-27T01:57:54.242Z,18.80
2022-08-27T02:00:28.106Z,18.80
2022-08-27T02:02:56.477Z,18.70
2022-08-27T02:07:51.434Z,18.70
2022-08-27T02:10:22.983Z,18.70
2022-08-27T02:12:49.807Z,18.60
2022-08-27T02:15:17.218Z,18.80
2022-08-27T02:22:38.948Z,18.40
2022-08-27T02:25:10.371Z,18.40
2022-08-27T02:27:37.301Z,18.50
2022-08-27T02:30:05.877Z,18.50
2022-08-27T02:35:00.537Z,18.50
2022-08-27T02:37:28.442Z,18.50
2022-08-27T02:39:55.475Z,18.50
2022-08-27T02:44:49.578Z,18.50
2022-08-27T02:49:44.395Z,18.50
2022-08-27T02:52:12.619Z,18.50
2022-08-27T02:54:40.219Z,18.60
2022-08-27T02:59:34.060Z,18.50
2022-08-27T03:02:01.306Z,18.50
2022-08-27T03:04:29.245Z,18.50
2022-08-27T03:06:56.620Z,18.50
2022-08-27T03:14:17.672Z,18.50
2022-08-27T03:16:44.422Z,18.40
2022-08-27T03:19:11.439Z,18.40
2022-08-27T03:24:09.238Z,18.50
2022-08-27T03:26:39.065Z,18.50
2022-08-27T03:29:07.761Z,18.50
2022-08-27T03:31:34.760Z,18.40
2022-08-27T03:34:04.462Z,18.40
2022-08-27T03:36:31.690Z,18.40
2022-08-27T03:38:58.797Z,18.50
2022-08-27T03:41:43.469Z,18.50
2022-08-27T03:44:12.209Z,18.50
2022-08-27T03:49:16.559Z,18.50
2022-08-27T03:51:47.864Z,18.40
2022-08-27T03:54:14.649Z,18.40
2022-08-27T03:56:41.588Z,18.40
2022-08-27T04:01:35.859Z,18.30
2022-08-27T04:04:03.379Z,18.30
2022-08-27T04:06:30.173Z,18.20
2022-08-27T04:08:56.865Z,18.30
2022-08-27T04:11:24.132Z,18.20
2022-08-27T04:13:51.359Z,18.20
2022-08-27T04:16:18.182Z,18.20
2022-08-27T04:18:44.983Z,18.20
2022-08-27T04:21:13.791Z,18.20
2022-08-27T04:23:42.012Z,18.20
2022-08-27T04:26:11.055Z,18.30
2022-08-27T04:28:38.775Z,18.30
2022-08-27T04:31:06.789Z,18.30
2022-08-27T04:33:38.675Z,18.20
2022-08-27T04:36:08.588Z,18.10
2022-08-27T04:41:23.144Z,18.30
2022-08-27T04:43:52.769Z,18.30
2022-08-27T04:46:24.812Z,18.20
2022-08-27T04:48:52.330Z,18.10
2022-08-27T04:51:20.805Z,18.10
2022-08-27T04:53:49.532Z,18.20
2022-08-27T04:56:18.808Z,18.10
2022-08-27T05:01:18.079Z,18.10
2022-08-27T05:03:45.636Z,18.10
2022-08-27T05:06:13.324Z,18.00
2022-08-27T05:11:09.399Z,18.10
2022-08-27T05:13:37.945Z,18.00
2022-08-27T05:16:07.866Z,18.10
2022-08-27T05:18:43.107Z,18.10
2022-08-27T05:21:20.082Z,18.10
2022-08-27T05:23:47.600Z,18.10
2022-08-27T05:26:15.083Z,18.00
2022-08-27T05:28:41.926Z,18.00
2022-08-27T05:31:10.473Z,18.00
2022-08-27T05:33:38.509Z,18.00
2022-08-27T05:36:06.401Z,18.00
2022-08-27T05:38:34.308Z,18.00
2022-08-27T05:41:10.535Z,18.00
2022-08-27T05:46:07.217Z,17.90
2022-08-27T05:56:03.854Z,18.10
2022-08-27T06:01:20.712Z,17.90
2022-08-27T06:03:47.411Z,17.70
2022-08-27T06:06:14.382Z,17.80
2022-08-27T06:11:08.209Z,17.70
2022-08-27T06:13:36.191Z,17.70
2022-08-27T06:16:09.675Z,17.70
2022-08-27T06:26:00.381Z,17.70
2022-08-27T06:51:19.725Z,17.80
2022-08-27T06:53:47.456Z,17.80
2022-08-27T06:56:16.796Z,17.70
2022-08-27T07:01:16.699Z,17.70
2022-08-27T07:06:12.765Z,17.70
2022-08-27T07:08:40.519Z,17.60
2022-08-27T07:13:36.110Z,17.70
2022-08-27T07:18:34.911Z,17.60
2022-08-27T07:21:04.113Z,17.50
2022-08-27T07:23:32.810Z,17.50
2022-08-27T07:28:28.194Z,17.60
2022-08-27T07:30:55.491Z,17.60
2022-08-27T07:33:22.289Z,17.60
2022-08-27T07:38:16.267Z,17.80
2022-08-27T07:45:57.141Z,17.90
2022-08-27T07:53:19.547Z,18.00
2022-08-27T07:55:46.967Z,18.00
2022-08-27T07:58:18.556Z,17.90
2022-08-27T08:08:11.850Z,17.90
2022-08-27T08:10:40.442Z,17.90
2022-08-27T08:13:07.997Z,18.00
2022-08-27T08:15:34.881Z,18.10
2022-08-27T08:20:56.393Z,18.30
2022-08-27T08:33:05.693Z,18.40
2022-08-27T08:43:06.676Z,18.60
2022-08-27T08:53:47.151Z,19.00
2022-08-27T08:56:21.398Z,19.00
2022-08-27T09:06:37.682Z,19.00
2022-08-27T09:09:16.424Z,18.90
2022-08-27T09:16:49.922Z,19.10
2022-08-27T09:24:49.645Z,19.50
2022-08-27T09:42:48.768Z,19.70
2022-08-27T09:45:24.820Z,19.70
2022-08-27T09:48:10.096Z,19.70
2022-08-27T09:53:25.675Z,20.00
2022-08-27T10:01:16.942Z,20.10
2022-08-27T10:06:11.808Z,20.00
2022-08-27T10:11:32.795Z,20.30
2022-08-27T10:14:16.345Z,20.40
2022-08-27T10:16:54.605Z,20.50
2022-08-27T10:25:17.774Z,20.80
2022-08-27T10:27:44.435Z,20.90
2022-08-27T10:30:15.893Z,20.80
2022-08-27T10:33:06.194Z,20.70
2022-08-27T10:40:55.799Z,20.70
2022-08-27T10:43:49.454Z,20.60
2022-08-27T10:49:01.459Z,20.40
2022-08-27T10:51:38.468Z,20.30
2022-08-27T10:56:38.183Z,20.30
2022-08-27T10:59:27.211Z,20.40
2022-08-27T11:04:42.222Z,20.30
2022-08-27T11:07:13.642Z,20.30
2022-08-27T11:09:59.814Z,20.10
2022-08-27T11:15:02.741Z,20.40
2022-08-27T11:20:35.467Z,20.70
2022-08-27T11:23:30.846Z,20.80
2022-08-27T11:29:00.976Z,20.90
2022-08-27T11:31:40.695Z,20.90
2022-08-27T11:37:09.886Z,21.10
2022-08-27T11:40:07.721Z,21.00
2022-08-27T11:42:46.490Z,21.00
2022-08-27T11:48:01.092Z,21.30
2022-08-27T11:50:31.078Z,21.40
2022-08-27T11:53:07.204Z,21.30
2022-08-27T11:55:36.681Z,21.30
2022-08-27T11:58:27.004Z,21.40
2022-08-27T12:00:54.220Z,21.50
2022-08-27T12:03:23.808Z,21.50
2022-08-27T12:05:53.689Z,21.60
2022-08-27T12:08:27.008Z,21.60
2022-08-27T12:11:24.655Z,21.60
2022-08-27T12:14:15.653Z,21.70
2022-08-27T12:16:55.858Z,21.70
2022-08-27T12:22:08.277Z,21.80
2022-08-27T12:24:49.982Z,22.00
2022-08-27T12:27:25.571Z,22.20
2022-08-27T12:29:56.880Z,22.30
2022-08-27T12:32:26.573Z,22.10
2022-08-27T12:35:25.520Z,22.30
2022-08-27T12:40:38.326Z,22.60
2022-08-27T12:43:07.199Z,22.60
2022-08-27T12:45:41.522Z,22.70
2022-08-27T12:48:09.801Z,22.70
2022-08-27T12:50:37.201Z,22.60
2022-08-27T12:53:18.042Z,22.70
2022-08-27T12:55:49.488Z,22.70
2022-08-27T12:58:19.528Z,22.70
2022-08-27T13:01:07.407Z,22.90
2022-08-27T13:03:44.101Z,22.90
2022-08-27T13:06:28.534Z,22.70
2022-08-27T13:08:57.497Z,22.60
2022-08-27T13:11:28.103Z,22.80
2022-08-27T13:14:10.179Z,23.10
2022-08-27T13:16:41.919Z,23.00
2022-08-27T13:19:34.219Z,22.80
2022-08-27T13:22:02.396Z,22.90
2022-08-27T13:24:44.233Z,23.10
2022-08-27T13:27:11.428Z,23.20
2022-08-27T13:29:40.371Z,23.10
2022-08-27T13:32:07.470Z,23.10
2022-08-27T13:34:37.993Z,23.40
2022-08-27T13:37:18.677Z,23.40
2022-08-27T13:39:45.431Z,23.50
2022-08-27T13:42:12.760Z,23.50
2022-08-27T13:44:41.870Z,23.50
2022-08-27T13:47:20.352Z,23.50
2022-08-27T13:52:36.170Z,23.40
2022-08-27T13:55:14.990Z,23.40
2022-08-27T13:57:45.938Z,23.40
2022-08-27T14:00:19.434Z,23.20
2022-08-27T14:02:56.244Z,23.10
2022-08-27T14:07:57.658Z,23.10
2022-08-27T14:13:01.452Z,23.00
2022-08-27T14:15:36.988Z,22.90
2022-08-27T14:18:07.050Z,22.90
2022-08-27T14:20:34.729Z,23.00
2022-08-27T14:23:01.480Z,22.90
2022-08-27T14:27:57.243Z,22.70
2022-08-27T14:30:29.069Z,22.50
2022-08-27T14:33:00.577Z,22.40
2022-08-27T14:35:29.556Z,22.50
2022-08-27T14:40:23.759Z,22.60
2022-08-27T14:42:50.956Z,22.60
2022-08-27T14:45:18.456Z,22.60
2022-08-27T14:47:45.294Z,22.70
2022-08-27T14:50:13.510Z,22.70
2022-08-27T14:52:40.827Z,22.90
2022-08-27T14:55:10.856Z,22.80
2022-08-27T14:57:38.289Z,22.60
2022-08-27T15:00:07.108Z,22.70
2022-08-27T15:05:01.161Z,22.60
2022-08-27T15:07:37.877Z,22.60
2022-08-27T15:10:06.275Z,22.60
2022-08-27T15:17:34.667Z,22.40
2022-08-27T15:20:05.629Z,22.40
2022-08-27T15:22:34.284Z,22.30
2022-08-27T15:25:03.227Z,22.20
2022-08-27T15:27:38.070Z,22.20
2022-08-27T15:30:12.171Z,22.10
2022-08-27T15:32:45.888Z,22.20
2022-08-27T15:35:18.555Z,22.10
2022-08-27T15:37:45.721Z,22.00
2022-08-27T15:40:15.361Z,21.90
2022-08-27T15:42:42.585Z,21.90
2022-08-27T15:45:11.403Z,21.80
2022-08-27T15:50:06.535Z,21.90
2022-08-27T15:52:40.794Z,21.90
2022-08-27T15:55:21.138Z,22.00
2022-08-27T16:00:16.870Z,21.90
2022-08-27T16:02:44.714Z,22.00
2022-08-27T16:05:13.805Z,21.90
2022-08-27T16:07:40.740Z,21.80
2022-08-27T16:10:08.753Z,21.90
2022-08-27T16:12:35.928Z,21.80
2022-08-27T16:15:05.278Z,21.70
2022-08-27T16:17:32.664Z,21.70
2022-08-27T16:19:59.385Z,21.70
2022-08-27T16:22:26.189Z,21.70
2022-08-27T16:27:20.459Z,21.70
2022-08-27T16:29:47.165Z,21.70
2022-08-27T16:32:17.161Z,21.60
2022-08-27T16:37:14.695Z,21.60
2022-08-27T16:39:41.475Z,21.60
2022-08-27T16:42:10.211Z,21.60
2022-08-27T16:47:05.994Z,21.50
2022-08-27T16:49:51.147Z,21.50
2022-08-27T16:52:19.611Z,21.40
2022-08-27T16:54:46.652Z,21.50
2022-08-27T17:02:17.479Z,21.50
2022-08-27T17:04:49.250Z,21.40
2022-08-27T17:09:52.861Z,21.40
2022-08-27T17:12:24.524Z,21.20
2022-08-27T17:14:55.637Z,21.20
2022-08-27T17:17:22.676Z,21.30
2022-08-27T17:19:49.454Z,21.20
2022-08-27T17:24:43.407Z,21.20
2022-08-27T17:29:37.419Z,21.00
2022-08-27T17:32:09.367Z,21.10
2022-08-27T17:37:03.631Z,21.10
2022-08-27T17:44:29.766Z,21.00
2022-08-27T17:47:01.231Z,20.90
2022-08-27T17:52:00.653Z,20.90
2022-08-27T17:54:32.524Z,21.00
2022-08-27T17:57:00.606Z,20.90
2022-08-27T18:01:56.535Z,20.90
2022-08-27T18:09:18.215Z,20.70
2022-08-27T18:11:46.272Z,20.70
2022-08-27T18:19:12.442Z,20.70
2022-08-27T18:21:46.568Z,20.60
2022-08-27T18:24:14.772Z,20.70
2022-08-27T18:26:41.690Z,20.60
2022-08-27T18:29:08.810Z,20.60
2022-08-27T18:34:02.811Z,20.70
2022-08-27T18:36:30.005Z,20.70
2022-08-27T18:38:57.550Z,20.70
2022-08-27T18:41:25.504Z,20.70
2022-08-27T18:43:52.718Z,20.70
2022-08-27T18:46:19.510Z,20.70
2022-08-27T18:48:46.382Z,20.60
2022-08-27T18:51:15.417Z,20.60
2022-08-27T18:53:44.340Z,20.60
2022-08-27T18:56:16.652Z,20.60
2022-08-27T19:01:15.389Z,20.60
2022-08-27T19:03:46.718Z,20.70
2022-08-27T19:06:16.101Z,20.60
2022-08-27T19:08:44.653Z,20.60
2022-08-27T19:11:11.603Z,20.50
2022-08-27T19:18:38.173Z,20.50
2022-08-27T19:21:05.989Z,20.50
2022-08-27T19:28:38.742Z,20.30
2022-08-27T19:31:07.126Z,20.40
2022-08-27T19:38:31.610Z,20.40
2022-08-27T19:41:00.151Z,20.50
2022-08-27T19:45:56.029Z,20.50
2022-08-27T19:48:23.433Z,20.50
2022-08-27T19:53:17.791Z,20.50
2022-08-27T19:55:46.030Z,20.50
2022-08-27T19:58:14.978Z,20.70
2022-08-27T20:00:42.414Z,20.70
2022-08-27T20:03:09.402Z,20.60
2022-08-27T20:05:36.781Z,20.60
2022-08-27T20:10:36.555Z,20.60
2022-08-27T20:13:04.993Z,20.60
2022-08-27T20:15:32.431Z,20.60
2022-08-27T20:17:59.400Z,20.50
2022-08-27T20:20:27.894Z,20.50
2022-08-27T20:22:55.822Z,20.50
2022-08-27T20:25:23.808Z,20.60
2022-08-27T20:27:52.090Z,20.50
2022-08-27T20:30:22.927Z,20.50
2022-08-27T20:32:50.625Z,20.60
2022-08-27T20:35:18.264Z,20.60
2022-08-27T20:40:22.493Z,20.50
2022-08-27T20:42:49.513Z,20.40
2022-08-27T20:47:47.337Z,20.50
2022-08-27T20:50:15.563Z,20.50
2022-08-27T20:55:12.414Z,20.40
2022-08-27T20:58:01.140Z,20.40
2022-08-27T21:00:33.367Z,20.40
2022-08-27T21:03:00.234Z,20.40
2022-08-27T21:05:27.367Z,20.40
2022-08-27T21:07:54.156Z,20.30
2022-08-27T21:12:49.360Z,20.30
2022-08-27T21:15:16.612Z,20.30
2022-08-27T21:17:43.564Z,20.20
2022-08-27T21:22:39.932Z,20.30
2022-08-27T21:32:28.779Z,20.40
2022-08-27T21:37:22.933Z,20.40
2022-08-27T21:42:17.098Z,20.40
2022-08-27T21:44:44.216Z,20.40
2022-08-27T21:52:06.618Z,20.40
2022-08-27T21:54:36.455Z,20.40
2022-08-27T21:57:04.531Z,20.40
2022-08-27T21:59:33.487Z,20.30
2022-08-27T22:02:01.295Z,20.30
2022-08-27T22:04:30.841Z,20.30
2022-08-27T22:06:59.059Z,20.20
2022-08-27T22:09:26.781Z,20.30
2022-08-27T22:11:54.020Z,20.30
2022-08-27T22:14:20.819Z,20.10
2022-08-27T22:19:14.978Z,20.30
2022-08-27T22:21:42.104Z,20.30
2022-08-27T22:24:09.261Z,20.20
2022-08-27T22:29:04.889Z,20.30
2022-08-27T22:31:32.614Z,20.20
2022-08-27T22:34:01.015Z,20.20
2022-08-27T22:36:28.162Z,20.20
2022-08-27T22:41:32.695Z,20.20
2022-08-27T22:43:59.932Z,20.20
2022-08-27T22:48:53.927Z,20.20
2022-08-27T22:51:21.624Z,20.30
2022-08-27T22:53:48.301Z,20.30
2022-08-27T22:58:46.089Z,20.30
2022-08-27T23:03:40.679Z,20.30
2022-08-27T23:08:34.776Z,20.20
2022-08-27T23:13:33.429Z,20.20
2022-08-27T23:20:55.547Z,20.10
2022-08-27T23:23:22.554Z,20.10
2022-08-27T23:26:12.241Z,20.10
2022-08-27T23:28:38.991Z,20.10
2022-08-27T23:38:27.399Z,20.10
2022-08-27T23:43:21.810Z,20.10
2022-08-27T23:45:48.592Z,20.00
2022-08-27T23:48:15.653Z,20.10
2022-08-27T23:50:42.900Z,20.00
2022-08-27T23:53:10.140Z,19.90
2022-08-27T23:55:40.081Z,19.80
2022-08-27T23:58:07.828Z,19.80
